createdAt,value
2023-04-11T00:01:39.179Z,51.68
2023-04-11T00:04:06.044Z,51.88
2023-04-11T00:06:33.795Z,51.87
2023-04-11T00:09:01.165Z,51.98
2023-04-11T00:11:27.736Z,52.17
2023-04-11T00:13:57.768Z,52.12
2023-04-11T00:16:25.642Z,52.55
2023-04-11T00:18:52.769Z,52.36
2023-04-11T00:21:19.747Z,52.54
2023-04-11T00:23:46.319Z,52.92
2023-04-11T00:26:12.872Z,52.82
2023-04-11T00:28:41.279Z,52.97
2023-04-11T00:31:10.335Z,53.21
2023-04-11T00:33:40.433Z,53.13
2023-04-11T00:36:08.603Z,52.90
2023-04-11T00:38:38.263Z,52.84
2023-04-11T00:41:04.878Z,52.92
2023-04-11T00:43:31.672Z,53.32
2023-04-11T00:45:58.332Z,53.16
2023-04-11T00:48:28.492Z,53.31
2023-04-11T00:50:55.424Z,53.50
2023-04-11T00:53:23.226Z,53.53
2023-04-11T00:55:51.502Z,53.84
2023-04-11T00:58:18.287Z,54.02
2023-04-11T01:00:45.007Z,54.10
2023-04-11T01:03:12.110Z,54.18
2023-04-11T01:05:40.552Z,54.52
2023-04-11T01:08:10.484Z,54.82
2023-04-11T01:10:38.558Z,54.79
2023-04-11T01:13:05.959Z,54.86
2023-04-11T01:15:32.682Z,55.17
2023-04-11T01:18:02.254Z,54.75
2023-04-11T01:20:29.910Z,54.89
2023-04-11T01:22:58.785Z,54.78
2023-04-11T01:25:25.750Z,55.30
2023-04-11T01:27:52.441Z,56.22
2023-04-11T01:30:19.033Z,57.30
2023-04-11T01:32:45.702Z,58.51
2023-04-11T01:35:12.812Z,59.31
2023-04-11T01:37:42.879Z,60.83
2023-04-11T01:40:10.079Z,61.77
2023-04-11T01:42:38.410Z,62.51
2023-04-11T01:45:07.099Z,63.60
2023-04-11T01:47:33.683Z,63.65
2023-04-11T01:50:01.376Z,64.74
2023-04-11T01:52:28.042Z,65.22
2023-04-11T01:54:54.651Z,65.73
2023-04-11T01:57:21.258Z,65.94
2023-04-11T01:59:47.891Z,66.43
2023-04-11T02:02:15.679Z,67.24
2023-04-11T02:04:42.407Z,68.16
2023-04-11T02:07:09.531Z,68.89
2023-04-11T02:09:36.585Z,68.42
2023-04-11T02:12:03.490Z,69.03
2023-04-11T02:14:42.985Z,69.98
2023-04-11T02:17:12.610Z,70.62
2023-04-11T02:19:41.291Z,71.08
2023-04-11T02:22:11.332Z,71.56
2023-04-11T02:24:38.758Z,71.76
2023-04-11T02:27:05.739Z,72.31
2023-04-11T02:29:32.667Z,72.71
2023-04-11T02:31:59.422Z,72.77
2023-04-11T02:34:26.540Z,74.28
2023-04-11T02:36:53.831Z,75.29
2023-04-11T02:39:24.300Z,76.00
2023-04-11T02:41:51.166Z,76.00
2023-04-11T02:44:19.239Z,76.66
2023-04-11T02:46:45.825Z,76.09
2023-04-11T02:49:12.368Z,75.97
2023-04-11T02:51:39.313Z,76.62
2023-04-11T02:54:06.337Z,76.70
2023-04-11T02:56:34.986Z,77.50
2023-04-11T02:59:01.514Z,77.54
2023-04-11T03:01:28.221Z,77.89
2023-04-11T03:03:54.885Z,78.28
2023-04-11T03:06:21.513Z,78.74
2023-04-11T03:08:48.173Z,79.68
2023-04-11T03:11:14.727Z,79.11
2023-04-11T03:13:41.801Z,79.94
2023-04-11T03:16:09.651Z,80.26
2023-04-11T03:18:36.223Z,80.25
2023-04-11T03:21:02.805Z,80.50
2023-04-11T03:23:29.452Z,80.98
2023-04-11T03:25:56.333Z,81.11
2023-04-11T03:28:23.319Z,81.32
2023-04-11T03:30:50.638Z,81.15
2023-04-11T03:33:17.304Z,81.44
2023-04-11T03:35:43.865Z,80.95
2023-04-11T03:38:10.384Z,81.32
2023-04-11T03:40:37.030Z,81.57
2023-04-11T03:43:04.847Z,81.86
2023-04-11T03:45:31.760Z,81.87
2023-04-11T03:47:58.340Z,82.10
2023-04-11T03:50:24.997Z,82.47
2023-04-11T03:52:51.513Z,82.38
2023-04-11T03:55:18.569Z,82.25
2023-04-11T03:57:45.201Z,83.11
2023-04-11T04:00:12.469Z,83.16
2023-04-11T04:02:39.457Z,82.95
2023-04-11T04:05:06.804Z,82.96
2023-04-11T04:07:33.618Z,83.01
2023-04-11T04:10:00.189Z,83.22
2023-04-11T04:12:26.919Z,83.63
2023-04-11T04:14:53.496Z,82.99
2023-04-11T04:17:20.035Z,83.08
2023-04-11T04:19:46.701Z,83.74
2023-04-11T04:22:13.355Z,83.38
2023-04-11T04:24:42.054Z,83.91
2023-04-11T04:27:13.850Z,84.13
2023-04-11T04:29:47.451Z,83.87
2023-04-11T04:32:22.790Z,83.43
2023-04-11T04:34:55.394Z,84.33
2023-04-11T04:37:24.303Z,84.66
2023-04-11T04:39:55.209Z,84.71
2023-04-11T04:42:23.593Z,84.37
2023-04-11T04:44:50.808Z,84.23
2023-04-11T04:47:18.268Z,84.75
2023-04-11T04:49:46.422Z,84.45
2023-04-11T04:52:14.192Z,84.36
2023-04-11T04:54:41.077Z,84.32
2023-04-11T04:57:08.482Z,84.29
2023-04-11T04:59:36.279Z,84.63
2023-04-11T05:02:03.152Z,84.77
2023-04-11T05:04:30.491Z,84.82
2023-04-11T05:06:57.386Z,85.44
2023-04-11T05:09:23.951Z,85.36
2023-04-11T05:11:50.775Z,85.32
2023-04-11T05:14:17.533Z,85.44
2023-04-11T05:16:44.851Z,85.30
2023-04-11T05:19:11.788Z,85.77
2023-04-11T05:21:39.214Z,85.66
2023-04-11T05:24:06.007Z,86.21
2023-04-11T05:26:32.750Z,85.98
2023-04-11T05:28:59.303Z,85.77
2023-04-11T05:31:25.976Z,85.75
2023-04-11T05:33:52.604Z,85.74
2023-04-11T05:36:19.434Z,85.96
2023-04-11T05:38:46.736Z,85.79
2023-04-11T05:41:13.385Z,85.96
2023-04-11T05:43:43.037Z,86.00
2023-04-11T05:46:10.001Z,86.41
2023-04-11T05:48:38.197Z,85.98
2023-04-11T05:51:05.637Z,86.10
2023-04-11T05:53:32.196Z,85.77
2023-04-11T05:55:58.906Z,86.44
2023-04-11T05:58:25.756Z,85.94
2023-04-11T06:00:52.380Z,86.23
2023-04-11T06:03:19.095Z,85.79
2023-04-11T06:05:46.130Z,85.89
2023-04-11T06:08:12.816Z,86.01
2023-04-11T06:10:42.165Z,85.88
2023-04-11T06:13:11.719Z,85.43
2023-04-11T06:15:38.485Z,85.19
2023-04-11T06:18:05.213Z,84.07
2023-04-11T06:20:31.913Z,83.76
2023-04-11T06:23:00.501Z,84.07
2023-04-11T06:25:27.908Z,83.04
2023-04-11T06:27:54.456Z,83.22
2023-04-11T06:30:21.064Z,83.54
2023-04-11T06:32:47.677Z,82.16
2023-04-11T06:35:14.292Z,82.34
2023-04-11T06:37:42.656Z,80.95
2023-04-11T06:40:09.923Z,81.08
2023-04-11T06:42:36.492Z,81.11
2023-04-11T06:45:04.181Z,81.27
2023-04-11T06:47:31.087Z,80.61
2023-04-11T06:49:57.794Z,80.43
2023-04-11T06:52:25.775Z,79.92
2023-04-11T06:54:53.632Z,80.12
2023-04-11T06:57:20.455Z,79.64
2023-04-11T06:59:46.988Z,79.43
2023-04-11T07:02:14.025Z,79.01
2023-04-11T07:04:41.239Z,78.73
2023-04-11T07:07:08.557Z,78.33
2023-04-11T07:09:36.421Z,78.06
2023-04-11T07:12:03.193Z,77.70
2023-04-11T07:14:29.832Z,77.05
2023-04-11T07:16:56.499Z,76.85
2023-04-11T07:19:23.208Z,75.23
2023-04-11T07:21:49.791Z,74.47
2023-04-11T07:24:18.653Z,74.58
2023-04-11T07:26:46.778Z,74.22
2023-04-11T07:29:14.890Z,73.46
2023-04-11T07:31:42.043Z,73.88
2023-04-11T07:34:11.475Z,74.45
2023-04-11T07:36:38.151Z,74.28
2023-04-11T07:39:09.880Z,73.50
2023-04-11T07:41:37.227Z,73.89
2023-04-11T07:44:07.876Z,73.80
2023-04-11T07:46:34.538Z,74.07
2023-04-11T07:49:01.285Z,73.94
2023-04-11T07:51:27.970Z,74.58
2023-04-11T07:53:54.737Z,74.92
2023-04-11T07:56:21.553Z,74.77
2023-04-11T07:58:48.168Z,75.51
2023-04-11T08:01:25.580Z,76.07
2023-04-11T08:03:58.063Z,75.77
2023-04-11T08:06:25.346Z,75.97
2023-04-11T08:08:51.888Z,75.66
2023-04-11T08:11:18.617Z,75.65
2023-04-11T08:13:45.280Z,74.29
2023-04-11T08:16:12.259Z,74.50
2023-04-11T08:18:42.298Z,74.89
2023-04-11T08:21:12.263Z,74.70
2023-04-11T08:23:42.811Z,74.29
2023-04-11T08:26:12.931Z,74.20
2023-04-11T08:28:43.583Z,74.22
2023-04-11T08:31:13.329Z,74.08
2023-04-11T08:33:43.425Z,73.78
2023-04-11T08:36:10.933Z,73.94
2023-04-11T08:38:40.994Z,74.10
2023-04-11T08:41:08.307Z,73.95
2023-04-11T08:43:35.780Z,73.62
2023-04-11T08:46:06.077Z,73.06
2023-04-11T08:48:33.070Z,72.60
2023-04-11T08:50:59.944Z,72.67
2023-04-11T08:53:27.258Z,72.22
2023-04-11T08:55:53.835Z,72.01
2023-04-11T08:58:20.872Z,72.47
2023-04-11T09:00:47.467Z,71.58
2023-04-11T09:03:16.621Z,72.01
2023-04-11T09:05:47.058Z,71.99
2023-04-11T09:08:21.626Z,71.37
2023-04-11T09:10:49.676Z,71.61
2023-04-11T09:13:26.375Z,71.63
2023-04-11T09:16:06.154Z,71.35
2023-04-11T09:18:38.454Z,71.78
2023-04-11T09:21:09.119Z,72.12
2023-04-11T09:23:37.862Z,71.99
2023-04-11T09:26:28.143Z,72.19
2023-04-11T09:29:04.638Z,72.35
2023-04-11T09:31:45.033Z,72.70
2023-04-11T09:34:12.707Z,73.35
2023-04-11T09:36:53.747Z,73.50
2023-04-11T09:39:23.720Z,73.87
2023-04-11T09:41:53.297Z,73.76
2023-04-11T09:44:40.904Z,74.27
2023-04-11T09:47:07.568Z,73.61
2023-04-11T09:49:36.149Z,73.72
2023-04-11T09:52:11.485Z,74.16
2023-04-11T09:54:38.291Z,74.19
2023-04-11T09:57:10.822Z,73.31
2023-04-11T10:00:17.077Z,71.97
2023-04-11T10:02:54.513Z,71.65
2023-04-11T10:05:49.885Z,71.65
2023-04-11T10:08:45.266Z,71.32
2023-04-11T10:11:22.408Z,69.66
2023-04-11T10:13:50.277Z,66.86
2023-04-11T10:16:24.170Z,66.91
2023-04-11T10:18:50.728Z,67.21
2023-04-11T10:21:41.073Z,67.39
2023-04-11T10:24:16.587Z,66.57
2023-04-11T10:27:03.595Z,65.01
2023-04-11T10:29:43.713Z,65.40
2023-04-11T10:32:16.494Z,65.66
2023-04-11T10:34:58.809Z,65.19
2023-04-11T10:37:36.862Z,65.70
2023-04-11T10:40:09.517Z,65.74
2023-04-11T10:42:52.223Z,65.96
2023-04-11T10:45:24.759Z,65.25
2023-04-11T10:48:11.349Z,65.75
2023-04-11T10:50:42.171Z,66.62
2023-04-11T10:53:36.319Z,65.12
2023-04-11T10:56:03.641Z,64.16
2023-04-11T10:58:42.796Z,64.46
2023-04-11T11:01:25.858Z,65.03
2023-04-11T11:04:01.628Z,65.48
2023-04-11T11:06:38.118Z,66.08
2023-04-11T11:09:24.413Z,66.98
2023-04-11T11:12:11.614Z,67.82
2023-04-11T11:15:12.592Z,67.63
2023-04-11T11:17:42.896Z,67.46
2023-04-11T11:20:40.766Z,65.59
2023-04-11T11:23:11.930Z,65.52
2023-04-11T11:25:55.951Z,65.72
2023-04-11T11:28:22.820Z,67.01
2023-04-11T11:30:54.038Z,66.42
2023-04-11T11:33:40.911Z,64.18
2023-04-11T11:36:33.566Z,63.56
2023-04-11T11:39:13.674Z,63.01
2023-04-11T11:41:44.879Z,62.56
2023-04-11T11:44:31.200Z,62.87
2023-04-11T11:47:15.342Z,62.29
2023-04-11T11:49:54.413Z,61.25
2023-04-11T11:52:41.332Z,61.78
2023-04-11T11:55:17.856Z,61.13
2023-04-11T11:58:11.960Z,62.14
2023-04-11T12:00:40.676Z,62.67
2023-04-11T12:03:13.237Z,62.53
2023-04-11T12:05:42.482Z,62.44
2023-04-11T12:08:33.268Z,62.22
2023-04-11T12:11:08.540Z,63.48
2023-04-11T12:13:46.276Z,63.50
2023-04-11T12:16:43.960Z,63.99
2023-04-11T12:19:10.976Z,64.04
2023-04-11T12:21:53.281Z,64.24
2023-04-11T12:24:34.687Z,64.50
2023-04-11T12:27:06.848Z,63.06
2023-04-11T12:30:15.221Z,62.67
2023-04-11T12:39:12.715Z,63.57
2023-04-11T12:41:46.666Z,63.78
2023-04-11T12:44:13.561Z,64.04
2023-04-11T12:46:40.698Z,64.57
2023-04-11T12:49:07.399Z,64.08
2023-04-11T12:51:53.053Z,63.73
2023-04-11T12:54:56.950Z,64.90
2023-04-11T12:57:24.126Z,66.73
2023-04-11T12:59:51.313Z,68.86
2023-04-11T13:02:21.021Z,70.03
2023-04-11T13:04:48.978Z,70.79
2023-04-11T13:07:29.368Z,70.12
2023-04-11T13:09:57.103Z,71.79
2023-04-11T13:12:44.682Z,72.09
2023-04-11T13:15:13.518Z,71.96
2023-04-11T13:18:02.410Z,71.80
2023-04-11T13:20:29.050Z,72.17
2023-04-11T13:25:54.439Z,71.91
2023-04-11T13:28:30.528Z,72.62
2023-04-11T13:31:17.867Z,73.61
2023-04-11T13:33:57.783Z,73.79
2023-04-11T13:36:27.296Z,74.87
2023-04-11T13:38:57.390Z,76.26
2023-04-11T13:44:13.766Z,77.21
2023-04-11T13:46:41.764Z,76.50
2023-04-11T13:49:32.360Z,76.67
2023-04-11T13:51:59.039Z,77.12
2023-04-11T13:54:26.369Z,77.78
2023-04-11T13:56:52.984Z,78.03
2023-04-11T13:59:32.325Z,77.79
2023-04-11T14:02:30.039Z,78.00
2023-04-11T14:04:56.597Z,78.80
2023-04-11T14:07:23.226Z,79.33
2023-04-11T14:09:50.110Z,79.52
2023-04-11T14:12:18.230Z,80.03
2023-04-11T14:14:53.596Z,80.88
2023-04-11T14:17:30.201Z,81.09
2023-04-11T14:19:56.871Z,81.16
2023-04-11T14:22:26.456Z,81.03
2023-04-11T14:24:54.113Z,81.18
2023-04-11T14:27:41.713Z,81.74
2023-04-11T14:30:12.808Z,81.90
2023-04-11T14:32:41.892Z,81.97
2023-04-11T14:35:11.955Z,82.19
2023-04-11T14:37:38.808Z,82.43
2023-04-11T14:40:07.135Z,82.56
2023-04-11T14:42:38.562Z,82.83
2023-04-11T14:45:14.203Z,82.75
2023-04-11T14:47:41.137Z,82.71
2023-04-11T14:50:12.604Z,83.08
2023-04-11T14:52:42.354Z,83.72
2023-04-11T14:55:12.655Z,82.77
2023-04-11T14:57:47.621Z,83.53
2023-04-11T15:00:20.090Z,83.17
2023-04-11T15:02:48.255Z,83.02
2023-04-11T15:05:20.030Z,83.15
2023-04-11T15:07:48.301Z,83.31
2023-04-11T15:10:22.678Z,83.35
2023-04-11T15:12:49.998Z,83.54
2023-04-11T15:15:17.026Z,83.60
2023-04-11T15:17:47.087Z,83.76
2023-04-11T15:20:14.820Z,83.66
2023-04-11T15:22:43.344Z,83.72
2023-04-11T15:25:13.681Z,83.89
2023-04-11T15:27:41.372Z,83.41
2023-04-11T15:30:09.652Z,82.82
2023-04-11T15:32:41.771Z,82.79
2023-04-11T15:35:11.975Z,82.40
2023-04-11T15:37:49.905Z,82.95
2023-04-11T15:40:18.755Z,82.45
2023-04-11T15:42:45.672Z,82.24
2023-04-11T15:45:21.542Z,82.00
2023-04-11T15:47:48.261Z,81.58
2023-04-11T15:50:31.552Z,81.80
2023-04-11T15:52:58.755Z,81.84
2023-04-11T15:55:25.304Z,81.62
2023-04-11T15:57:54.660Z,80.81
2023-04-11T16:00:31.941Z,81.14
2023-04-11T16:03:03.152Z,80.48
2023-04-11T16:05:33.329Z,80.73
2023-04-11T16:07:59.979Z,80.95
2023-04-11T16:10:26.848Z,80.32
2023-04-11T16:12:53.558Z,80.69
2023-04-11T16:15:20.350Z,80.71
2023-04-11T16:17:47.157Z,80.27
2023-04-11T16:20:18.790Z,80.81
2023-04-11T16:22:47.035Z,80.63
2023-04-11T16:25:21.024Z,80.79
2023-04-11T16:27:48.362Z,81.02
2023-04-11T16:30:15.183Z,80.63
2023-04-11T16:32:42.011Z,80.37
2023-04-11T16:35:11.538Z,80.76
2023-04-11T16:37:38.818Z,80.55
2023-04-11T16:40:11.836Z,80.42
2023-04-11T16:42:39.821Z,80.41
2023-04-11T16:45:09.073Z,80.92
2023-04-11T16:47:36.084Z,80.56
2023-04-11T16:50:06.698Z,80.90
2023-04-11T16:52:33.863Z,81.09
2023-04-11T16:55:00.941Z,81.27
2023-04-11T16:57:28.064Z,81.57
2023-04-11T16:59:54.807Z,81.33
2023-04-11T17:02:21.532Z,81.81
2023-04-11T17:04:48.645Z,81.85
2023-04-11T17:07:16.365Z,82.10
2023-04-11T17:09:47.960Z,81.96
2023-04-11T17:12:14.783Z,82.50
2023-04-11T17:14:41.747Z,82.77
2023-04-11T17:17:08.676Z,82.78
2023-04-11T17:19:35.993Z,82.91
2023-04-11T17:22:02.838Z,82.93
2023-04-11T17:24:29.551Z,83.10
2023-04-11T17:26:57.137Z,82.83
2023-04-11T17:29:23.953Z,82.95
2023-04-11T17:31:50.701Z,83.10
2023-04-11T17:34:17.653Z,82.96
2023-04-11T17:36:46.134Z,83.09
2023-04-11T17:39:17.628Z,83.51
2023-04-11T17:41:45.548Z,83.68
2023-04-11T17:44:14.788Z,83.74
2023-04-11T17:46:47.276Z,84.15
2023-04-11T17:49:15.019Z,84.20
2023-04-11T17:51:48.687Z,83.87
2023-04-11T17:54:19.248Z,84.18
2023-04-11T17:56:46.122Z,84.19
2023-04-11T17:59:13.731Z,84.17
2023-04-11T18:01:47.173Z,84.35
2023-04-11T18:04:15.345Z,84.21
2023-04-11T18:06:47.932Z,84.28
2023-04-11T18:09:17.781Z,84.18
2023-04-11T18:11:44.882Z,84.36
2023-04-11T18:14:35.267Z,84.62
2023-04-11T18:17:16.436Z,84.92
2023-04-11T18:19:46.284Z,84.88
2023-04-11T18:22:17.011Z,84.24
2023-04-11T18:24:44.119Z,84.46
2023-04-11T18:27:18.112Z,84.62
2023-04-11T18:29:47.309Z,84.41
2023-04-11T18:32:19.843Z,84.00
2023-04-11T18:34:48.727Z,83.80
2023-04-11T18:37:15.396Z,83.82
2023-04-11T18:39:46.357Z,84.26
2023-04-11T18:42:13.150Z,83.63
2023-04-11T18:44:43.436Z,83.55
2023-04-11T18:47:13.328Z,83.63
2023-04-11T18:49:43.760Z,83.61
2023-04-11T18:52:14.094Z,83.73
2023-04-11T18:54:44.813Z,84.06
2023-04-11T18:57:14.958Z,83.72
2023-04-11T18:59:44.101Z,83.66
2023-04-11T19:02:14.163Z,84.13
2023-04-11T19:04:46.137Z,83.71
2023-04-11T19:07:14.015Z,83.50
2023-04-11T19:09:41.688Z,84.02
2023-04-11T19:12:08.739Z,84.09
2023-04-11T19:14:36.198Z,84.06
2023-04-11T19:17:03.211Z,83.97
2023-04-11T19:19:30.139Z,84.70
2023-04-11T19:21:57.233Z,84.35
2023-04-11T19:24:23.881Z,84.72
2023-04-11T19:26:52.755Z,84.79
2023-04-11T19:29:19.362Z,84.63
2023-04-11T19:31:46.914Z,84.67
2023-04-11T19:34:15.239Z,84.88
2023-04-11T19:36:44.852Z,84.74
2023-04-11T19:39:12.582Z,84.58
2023-04-11T19:41:44.430Z,84.99
2023-04-11T19:44:14.172Z,85.10
2023-04-11T19:46:46.850Z,84.85
2023-04-11T19:49:13.463Z,85.00
2023-04-11T19:51:40.645Z,85.03
2023-04-11T19:54:07.370Z,85.12
2023-04-11T19:56:34.196Z,85.02
2023-04-11T19:59:00.948Z,85.08
2023-04-11T20:01:29.089Z,84.94
2023-04-11T20:03:57.164Z,85.62
2023-04-11T20:06:24.277Z,85.17
2023-04-11T20:08:51.178Z,85.58
2023-04-11T20:11:21.277Z,85.68
2023-04-11T20:13:48.276Z,85.64
2023-04-11T20:16:15.066Z,85.84
2023-04-11T20:18:45.008Z,86.18
2023-04-11T20:21:11.969Z,86.10
2023-04-11T20:23:39.481Z,85.87
2023-04-11T20:26:06.108Z,85.90
2023-04-11T20:28:33.532Z,86.54
2023-04-11T20:31:00.436Z,85.79
2023-04-11T20:33:28.108Z,86.43
2023-04-11T20:35:56.508Z,86.51
2023-04-11T20:38:23.652Z,86.72
2023-04-11T20:40:51.358Z,86.42
2023-04-11T20:43:18.260Z,86.33
2023-04-11T20:45:47.919Z,86.91
2023-04-11T20:48:14.755Z,87.15
2023-04-11T20:50:47.157Z,87.43
2023-04-11T20:53:14.629Z,87.35
2023-04-11T20:55:44.274Z,87.76
2023-04-11T20:58:17.156Z,87.85
2023-04-11T21:00:44.505Z,87.50
2023-04-11T21:03:14.881Z,87.23
2023-04-11T21:05:46.725Z,87.11
2023-04-11T21:08:13.570Z,87.88
2023-04-11T21:10:43.316Z,87.63
2023-04-11T21:13:10.299Z,88.80
2023-04-11T21:15:36.963Z,88.54
2023-04-11T21:18:05.494Z,88.64
2023-04-11T21:20:34.544Z,88.23
2023-04-11T21:23:02.893Z,88.36
2023-04-11T21:25:29.635Z,87.87
2023-04-11T21:27:57.740Z,88.32
2023-04-11T21:30:24.343Z,88.79
2023-04-11T21:32:52.016Z,88.65
2023-04-11T21:35:18.688Z,88.23
2023-04-11T21:37:47.742Z,88.00
2023-04-11T21:40:15.826Z,88.58
2023-04-11T21:42:42.675Z,88.45
2023-04-11T21:45:11.907Z,88.96
2023-04-11T21:47:39.818Z,88.49
2023-04-11T21:50:07.066Z,88.95
2023-04-11T21:52:33.696Z,89.67
2023-04-11T21:55:00.455Z,89.64
2023-04-11T21:57:27.218Z,89.15
2023-04-11T21:59:53.889Z,88.77
2023-04-11T22:02:21.196Z,88.45
2023-04-11T22:05:04.857Z,88.43
2023-04-11T22:07:48.701Z,88.77
2023-04-11T22:10:22.206Z,88.85
2023-04-11T22:12:49.150Z,88.60
2023-04-11T22:15:18.526Z,89.27
2023-04-11T22:17:50.388Z,89.46
2023-04-11T22:20:18.279Z,89.40
2023-04-11T22:22:45.181Z,89.33
2023-04-11T22:25:12.097Z,89.15
2023-04-11T22:27:38.841Z,89.62
2023-04-11T22:30:07.012Z,89.37
2023-04-11T22:32:34.095Z,89.72
2023-04-11T22:35:01.293Z,90.22
2023-04-11T22:37:28.040Z,89.73
2023-04-11T22:39:55.148Z,89.99
2023-04-11T22:42:21.937Z,89.81
2023-04-11T22:44:48.660Z,90.23
2023-04-11T22:47:16.589Z,89.45
2023-04-11T22:49:45.188Z,89.38
2023-04-11T22:52:18.924Z,89.80
2023-04-11T22:54:46.916Z,89.88
2023-04-11T22:57:13.561Z,90.22
2023-04-11T22:59:41.254Z,89.94
2023-04-11T23:02:08.649Z,89.79
2023-04-11T23:04:35.327Z,89.70
2023-04-11T23:07:03.574Z,90.13
2023-04-11T23:09:30.229Z,90.19
2023-04-11T23:11:57.321Z,90.15
2023-04-11T23:14:30.959Z,89.63
2023-04-11T23:16:57.756Z,89.65
2023-04-11T23:19:24.407Z,90.33
2023-04-11T23:21:51.084Z,90.21
2023-04-11T23:24:17.793Z,90.17
2023-04-11T23:26:44.452Z,90.32
2023-04-11T23:29:13.829Z,90.38
2023-04-11T23:31:42.261Z,90.11
2023-04-11T23:34:08.837Z,89.93
2023-04-11T23:36:35.659Z,89.91
2023-04-11T23:39:02.433Z,90.42
2023-04-11T23:41:30.296Z,90.37
2023-04-11T23:43:57.417Z,90.28
2023-04-11T23:46:24.614Z,90.32
2023-04-11T23:48:51.641Z,90.43
2023-04-11T23:51:18.358Z,90.44
2023-04-11T23:53:45.964Z,90.80
2023-04-11T23:56:12.903Z,90.75
2023-04-11T23:58:43.858Z,90.36
